sensor_id;sensor_type;location;lat;lon;timestamp;P1;durP1;ratioP1;P2;durP2;ratioP2
6638;SDS011;3355;52.882;8.430;2024-01-27T07:27:40;13.97;;;4.47;;
6638;SDS011;3355;52.882;8.430;2024-01-27T07:30:07;10.67;;;4.33;;
6638;SDS011;3355;52.882;8.430;2024-01-27T07:32:36;12.60;;;3.70;;
6638;SDS011;3355;52.882;8.430;2024-01-27T07:35:03;8.57;;;3.40;;
6638;SDS011;3355;52.882;8.430;2024-01-27T07:37:30;12.50;;;4.10;;
6638;SDS011;3355;52.882;8.430;2024-01-27T07:39:57;7.73;;;2.70;;
6638;SDS011;3355;52.882;8.430;2024-01-27T07:42:24;8.77;;;3.20;;
6638;SDS011;3355;52.882;8.430;2024-01-27T07:44:51;7.53;;;3.37;;
6638;SDS011;3355;52.882;8.430;2024-01-27T07:47:18;14.57;;;3.57;;
6638;SDS011;3355;52.882;8.430;2024-01-27T07:49:45;8.87;;;3.47;;
6638;SDS011;3355;52.882;8.430;2024-01-27T07:52:11;10.47;;;4.07;;
6638;SDS011;3355;52.882;8.430;2024-01-27T07:54:38;9.40;;;3.80;;
6638;SDS011;3355;52.882;8.430;2024-01-27T07:57:14;7.63;;;3.73;;
6638;SDS011;3355;52.882;8.430;2024-01-27T07:59:41;20.73;;;5.30;;
6638;SDS011;3355;52.882;8.430;2024-01-27T08:02:09;9.40;;;3.67;;
6638;SDS011;3355;52.882;8.430;2024-01-27T08:04:35;14.77;;;4.70;;
6638;SDS011;3355;52.882;8.430;2024-01-27T08:07:03;8.83;;;4.63;;
6638;SDS011;3355;52.882;8.430;2024-01-27T08:09:34;10.10;;;4.50;;
6638;SDS011;3355;52.882;8.430;2024-01-27T08:12:03;7.67;;;4.23;;
6638;SDS011;3355;52.882;8.430;2024-01-27T08:14:30;13.23;;;5.23;;
6638;SDS011;3355;52.882;8.430;2024-01-27T08:16:56;10.17;;;4.33;;
6638;SDS011;3355;52.882;8.430;2024-01-27T08:19:25;15.63;;;5.40;;
6638;SDS011;3355;52.882;8.430;2024-01-27T08:21:51;12.90;;;5.77;;
6638;SDS011;3355;52.882;8.430;2024-01-27T08:24:18;14.77;;;6.70;;
6638;SDS011;3355;52.882;8.430;2024-01-27T08:26:44;13.27;;;4.93;;
6638;SDS011;3355;52.882;8.430;2024-01-27T08:29:13;12.70;;;4.97;;
6638;SDS011;3355;52.882;8.430;2024-01-27T08:31:40;6.77;;;4.07;;
6638;SDS011;3355;52.882;8.430;2024-01-27T08:34:06;8.80;;;4.43;;
6638;SDS011;3355;52.882;8.430;2024-01-27T08:36:34;15.77;;;4.87;;
6638;SDS011;3355;52.882;8.430;2024-01-27T08:39:02;13.80;;;5.17;;
6638;SDS011;3355;52.882;8.430;2024-01-27T08:41:38;9.87;;;4.40;;
6638;SDS011;3355;52.882;8.430;2024-01-27T08:44:09;10.13;;;4.67;;
6638;SDS011;3355;52.882;8.430;2024-01-27T08:46:36;11.00;;;5.40;;
6638;SDS011;3355;52.882;8.430;2024-01-27T08:49:03;12.60;;;5.53;;
6638;SDS011;3355;52.882;8.430;2024-01-27T08:51:32;9.27;;;5.13;;
6638;SDS011;3355;52.882;8.430;2024-01-27T08:54:00;10.43;;;4.77;;
6638;SDS011;3355;52.882;8.430;2024-01-27T08:56:27;9.87;;;5.40;;
6638;SDS011;3355;52.882;8.430;2024-01-27T08:58:54;10.20;;;5.43;;
6638;SDS011;3355;52.882;8.430;2024-01-27T09:01:21;10.27;;;6.40;;
6638;SDS011;3355;52.882;8.430;2024-01-27T09:03:47;16.70;;;5.97;;
6638;SDS011;3355;52.882;8.430;2024-01-27T09:06:14;8.63;;;5.10;;
6638;SDS011;3355;52.882;8.430;2024-01-27T09:08:41;12.80;;;6.30;;
6638;SDS011;3355;52.882;8.430;2024-01-27T09:11:09;14.90;;;6.10;;
6638;SDS011;3355;52.882;8.430;2024-01-27T09:13:36;8.63;;;5.43;;
6638;SDS011;3355;52.882;8.430;2024-01-27T09:16:03;15.33;;;7.80;;
6638;SDS011;3355;52.882;8.430;2024-01-27T09:18:30;8.83;;;5.77;;
6638;SDS011;3355;52.882;8.430;2024-01-27T09:20:59;10.23;;;5.40;;
6638;SDS011;3355;52.882;8.430;2024-01-27T09:23:26;14.33;;;5.10;;
6638;SDS011;3355;52.882;8.430;2024-01-27T09:25:53;9.33;;;6.00;;
6638;SDS011;3355;52.882;8.430;2024-01-27T09:28:20;14.23;;;6.60;;
6638;SDS011;3355;52.882;8.430;2024-01-27T09:30:48;12.20;;;6.53;;
6638;SDS011;3355;52.882;8.430;2024-01-27T09:33:15;11.57;;;5.10;;
6638;SDS011;3355;52.882;8.430;2024-01-27T09:35:44;10.53;;;5.93;;
6638;SDS011;3355;52.882;8.430;2024-01-27T09:38:11;10.30;;;5.50;;
6638;SDS011;3355;52.882;8.430;2024-01-27T09:40:39;10.93;;;5.67;;
6638;SDS011;3355;52.882;8.430;2024-01-27T09:43:06;10.10;;;5.70;;
6638;SDS011;3355;52.882;8.430;2024-01-27T09:45:34;15.83;;;6.90;;
6638;SDS011;3355;52.882;8.430;2024-01-27T09:48:01;16.50;;;6.20;;
6638;SDS011;3355;52.882;8.430;2024-01-27T09:50:29;16.23;;;5.80;;
6638;SDS011;3355;52.882;8.430;2024-01-27T09:52:56;13.70;;;6.40;;
6638;SDS011;3355;52.882;8.430;2024-01-27T09:55:23;11.87;;;4.70;;
6638;SDS011;3355;52.882;8.430;2024-01-27T09:57:49;9.57;;;5.33;;
6638;SDS011;3355;52.882;8.430;2024-01-27T10:00:17;9.43;;;4.47;;
6638;SDS011;3355;52.882;8.430;2024-01-27T10:02:46;10.40;;;4.93;;
6638;SDS011;3355;52.882;8.430;2024-01-27T10:05:14;7.87;;;4.87;;
6638;SDS011;3355;52.882;8.430;2024-01-27T10:07:42;9.60;;;5.20;;
6638;SDS011;3355;52.882;8.430;2024-01-27T10:10:08;7.60;;;5.17;;
6638;SDS011;3355;52.882;8.430;2024-01-27T10:12:36;14.70;;;5.80;;
6638;SDS011;3355;52.882;8.430;2024-01-27T10:15:05;10.60;;;5.03;;
6638;SDS011;3355;52.882;8.430;2024-01-27T10:17:32;9.10;;;5.30;;
6638;SDS011;3355;52.882;8.430;2024-01-27T10:20:03;11.70;;;6.23;;
6638;SDS011;3355;52.882;8.430;2024-01-27T10:22:37;9.80;;;5.00;;
6638;SDS011;3355;52.882;8.430;2024-01-27T10:25:04;11.67;;;5.60;;
6638;SDS011;3355;52.882;8.430;2024-01-27T10:27:31;12.00;;;5.50;;
6638;SDS011;3355;52.882;8.430;2024-01-27T10:30:01;10.73;;;4.73;;
6638;SDS011;3355;52.882;8.430;2024-01-27T10:32:28;14.03;;;5.47;;
6638;SDS011;3355;52.882;8.430;2024-01-27T10:35:02;7.90;;;4.90;;
6638;SDS011;3355;52.882;8.430;2024-01-27T10:37:29;6.70;;;5.00;;
6638;SDS011;3355;52.882;8.430;2024-01-27T10:39:59;13.17;;;5.70;;
6638;SDS011;3355;52.882;8.430;2024-01-27T10:42:29;7.50;;;4.97;;
6638;SDS011;3355;52.882;8.430;2024-01-27T10:44:57;9.40;;;4.40;;
6638;SDS011;3355;52.882;8.430;2024-01-27T10:47:24;9.70;;;5.70;;
6638;SDS011;3355;52.882;8.430;2024-01-27T10:49:51;11.73;;;4.93;;
6638;SDS011;3355;52.882;8.430;2024-01-27T10:52:21;9.60;;;5.43;;
6638;SDS011;3355;52.882;8.430;2024-01-27T10:54:53;14.00;;;5.60;;
6638;SDS011;3355;52.882;8.430;2024-01-27T10:57:21;11.10;;;4.57;;
6638;SDS011;3355;52.882;8.430;2024-01-27T10:59:52;10.73;;;5.60;;
6638;SDS011;3355;52.882;8.430;2024-01-27T11:02:19;8.33;;;5.23;;
6638;SDS011;3355;52.882;8.430;2024-01-27T11:04:47;7.77;;;4.57;;
6638;SDS011;3355;52.882;8.430;2024-01-27T11:07:14;10.97;;;5.23;;
6638;SDS011;3355;52.882;8.430;2024-01-27T11:09:42;10.20;;;5.03;;
6638;SDS011;3355;52.882;8.430;2024-01-27T11:12:10;10.37;;;4.83;;
6638;SDS011;3355;52.882;8.430;2024-01-27T11:14:39;8.10;;;4.80;;
6638;SDS011;3355;52.882;8.430;2024-01-27T11:17:06;9.53;;;4.10;;
6638;SDS011;3355;52.882;8.430;2024-01-27T11:19:32;8.93;;;4.00;;
6638;SDS011;3355;52.882;8.430;2024-01-27T11:22:00;9.30;;;4.90;;
6638;SDS011;3355;52.882;8.430;2024-01-27T11:24:27;9.27;;;4.93;;
6638;SDS011;3355;52.882;8.430;2024-01-27T11:27:01;7.90;;;4.00;;
6638;SDS011;3355;52.882;8.430;2024-01-27T11:29:28;9.80;;;5.03;;
6638;SDS011;3355;52.882;8.430;2024-01-27T11:31:57;10.90;;;4.70;;
6638;SDS011;3355;52.882;8.430;2024-01-27T11:34:25;7.20;;;4.60;;
6638;SDS011;3355;52.882;8.430;2024-01-27T11:36:52;13.37;;;5.90;;
6638;SDS011;3355;52.882;8.430;2024-01-27T11:39:24;11.07;;;4.87;;
6638;SDS011;3355;52.882;8.430;2024-01-27T11:41:52;8.07;;;4.90;;
6638;SDS011;3355;52.882;8.430;2024-01-27T11:44:20;13.00;;;5.50;;
6638;SDS011;3355;52.882;8.430;2024-01-27T11:46:47;9.30;;;4.77;;
6638;SDS011;3355;52.882;8.430;2024-01-27T11:49:17;6.20;;;4.33;;
6638;SDS011;3355;52.882;8.430;2024-01-27T11:51:43;5.60;;;4.33;;
6638;SDS011;3355;52.882;8.430;2024-01-27T11:54:10;12.97;;;6.33;;
6638;SDS011;3355;52.882;8.430;2024-01-27T11:56:38;5.63;;;4.87;;
6638;SDS011;3355;52.882;8.430;2024-01-27T11:59:04;12.03;;;5.90;;
6638;SDS011;3355;52.882;8.430;2024-01-27T12:01:32;9.17;;;5.13;;
6638;SDS011;3355;52.882;8.430;2024-01-27T12:03:59;10.27;;;5.17;;
6638;SDS011;3355;52.882;8.430;2024-01-27T12:06:25;8.57;;;5.43;;
6638;SDS011;3355;52.882;8.430;2024-01-27T12:08:53;11.03;;;5.60;;
6638;SDS011;3355;52.882;8.430;2024-01-27T12:11:21;9.70;;;5.13;;
6638;SDS011;3355;52.882;8.430;2024-01-27T12:13:48;7.80;;;5.30;;
6638;SDS011;3355;52.882;8.430;2024-01-27T12:16:15;9.97;;;5.40;;
6638;SDS011;3355;52.882;8.430;2024-01-27T12:18:43;12.70;;;5.83;;
6638;SDS011;3355;52.882;8.430;2024-01-27T12:21:09;10.33;;;4.43;;
6638;SDS011;3355;52.882;8.430;2024-01-27T12:23:36;11.63;;;5.00;;
6638;SDS011;3355;52.882;8.430;2024-01-27T12:26:15;7.50;;;4.17;;
6638;SDS011;3355;52.882;8.430;2024-01-27T12:28:44;5.73;;;4.03;;
6638;SDS011;3355;52.882;8.430;2024-01-27T12:31:11;7.70;;;5.10;;
6638;SDS011;3355;52.882;8.430;2024-01-27T12:33:38;9.53;;;4.93;;
6638;SDS011;3355;52.882;8.430;2024-01-27T12:36:08;9.40;;;5.83;;
6638;SDS011;3355;52.882;8.430;2024-01-27T12:38:35;9.10;;;4.60;;
6638;SDS011;3355;52.882;8.430;2024-01-27T12:41:02;8.93;;;4.60;;
6638;SDS011;3355;52.882;8.430;2024-01-27T12:43:29;13.53;;;5.23;;
6638;SDS011;3355;52.882;8.430;2024-01-27T12:45:55;8.80;;;4.73;;
6638;SDS011;3355;52.882;8.430;2024-01-27T12:48:22;11.00;;;4.50;;
6638;SDS011;3355;52.882;8.430;2024-01-27T12:50:48;12.40;;;5.40;;
6638;SDS011;3355;52.882;8.430;2024-01-27T12:53:16;15.87;;;4.93;;
6638;SDS011;3355;52.882;8.430;2024-01-27T12:55:43;8.70;;;4.70;;
6638;SDS011;3355;52.882;8.430;2024-01-27T12:58:10;6.83;;;3.90;;
6638;SDS011;3355;52.882;8.430;2024-01-27T13:00:36;9.63;;;4.00;;
6638;SDS011;3355;52.882;8.430;2024-01-27T13:03:03;6.50;;;4.20;;
6638;SDS011;3355;52.882;8.430;2024-01-27T13:05:30;4.67;;;4.27;;
6638;SDS011;3355;52.882;8.430;2024-01-27T13:07:59;10.37;;;5.30;;
6638;SDS011;3355;52.882;8.430;2024-01-27T13:10:27;7.37;;;4.40;;
6638;SDS011;3355;52.882;8.430;2024-01-27T13:12:54;6.57;;;4.10;;
6638;SDS011;3355;52.882;8.430;2024-01-27T13:15:21;8.50;;;5.00;;
6638;SDS011;3355;52.882;8.430;2024-01-27T13:17:50;9.20;;;5.10;;
6638;SDS011;3355;52.882;8.430;2024-01-27T13:20:24;8.53;;;4.43;;
6638;SDS011;3355;52.882;8.430;2024-01-27T13:22:50;11.57;;;4.13;;
6638;SDS011;3355;52.882;8.430;2024-01-27T13:25:22;5.23;;;3.67;;
6638;SDS011;3355;52.882;8.430;2024-01-27T13:27:50;6.97;;;4.87;;
6638;SDS011;3355;52.882;8.430;2024-01-27T13:30:17;8.93;;;3.90;;
6638;SDS011;3355;52.882;8.430;2024-01-27T13:32:44;10.97;;;6.00;;
6638;SDS011;3355;52.882;8.430;2024-01-27T13:35:11;10.10;;;4.60;;
6638;SDS011;3355;52.882;8.430;2024-01-27T13:37:38;6.73;;;4.13;;
6638;SDS011;3355;52.882;8.430;2024-01-27T13:40:08;11.57;;;5.03;;
6638;SDS011;3355;52.882;8.430;2024-01-27T13:42:51;7.87;;;4.63;;
6638;SDS011;3355;52.882;8.430;2024-01-27T13:45:18;7.20;;;4.23;;
6638;SDS011;3355;52.882;8.430;2024-01-27T13:47:45;9.87;;;5.10;;
6638;SDS011;3355;52.882;8.430;2024-01-27T13:50:11;9.40;;;4.20;;
6638;SDS011;3355;52.882;8.430;2024-01-27T13:52:40;13.10;;;4.67;;
6638;SDS011;3355;52.882;8.430;2024-01-27T13:55:10;8.27;;;4.50;;
6638;SDS011;3355;52.882;8.430;2024-01-27T13:57:38;12.13;;;5.10;;
6638;SDS011;3355;52.882;8.430;2024-01-27T14:00:09;4.77;;;3.20;;
6638;SDS011;3355;52.882;8.430;2024-01-27T14:02:36;8.77;;;4.17;;
6638;SDS011;3355;52.882;8.430;2024-01-27T14:05:03;9.67;;;4.90;;
6638;SDS011;3355;52.882;8.430;2024-01-27T14:07:31;11.90;;;4.10;;
6638;SDS011;3355;52.882;8.430;2024-01-27T14:09:58;6.50;;;3.70;;
6638;SDS011;3355;52.882;8.430;2024-01-27T14:12:24;6.57;;;3.97;;
6638;SDS011;3355;52.882;8.430;2024-01-27T14:15:01;9.27;;;3.50;;
6638;SDS011;3355;52.882;8.430;2024-01-27T14:17:30;12.77;;;4.80;;
6638;SDS011;3355;52.882;8.430;2024-01-27T14:19:56;7.83;;;4.33;;
6638;SDS011;3355;52.882;8.430;2024-01-27T14:22:23;9.33;;;4.97;;
6638;SDS011;3355;52.882;8.430;2024-01-27T14:24:50;7.33;;;3.57;;
6638;SDS011;3355;52.882;8.430;2024-01-27T14:27:16;9.80;;;4.30;;
6638;SDS011;3355;52.882;8.430;2024-01-27T14:29:50;6.97;;;3.87;;
6638;SDS011;3355;52.882;8.430;2024-01-27T14:32:17;7.83;;;3.87;;
6638;SDS011;3355;52.882;8.430;2024-01-27T14:34:45;7.20;;;3.40;;
6638;SDS011;3355;52.882;8.430;2024-01-27T14:37:11;6.83;;;3.60;;
6638;SDS011;3355;52.882;8.430;2024-01-27T14:39:38;5.63;;;3.40;;
6638;SDS011;3355;52.882;8.430;2024-01-27T14:42:10;5.40;;;2.87;;
6638;SDS011;3355;52.882;8.430;2024-01-27T14:44:54;7.20;;;3.40;;
6638;SDS011;3355;52.882;8.430;2024-01-27T14:47:27;6.23;;;3.73;;
6638;SDS011;3355;52.882;8.430;2024-01-27T14:50:06;6.53;;;4.10;;
6638;SDS011;3355;52.882;8.430;2024-01-27T14:53:05;9.20;;;3.33;;
6638;SDS011;3355;52.882;8.430;2024-01-27T14:55:27;4.50;;;2.73;;
6638;SDS011;3355;52.882;8.430;2024-01-27T14:57:55;8.37;;;4.37;;
6638;SDS011;3355;52.882;8.430;2024-01-27T15:00:22;7.30;;;3.37;;
6638;SDS011;3355;52.882;8.430;2024-01-27T15:02:49;11.60;;;4.00;;
6638;SDS011;3355;52.882;8.430;2024-01-27T15:05:17;6.07;;;2.83;;
6638;SDS011;3355;52.882;8.430;2024-01-27T15:07:44;19.67;;;3.83;;
6638;SDS011;3355;52.882;8.430;2024-01-27T15:10:21;12.10;;;3.27;;
6638;SDS011;3355;52.882;8.430;2024-01-27T15:13:03;10.63;;;3.20;;
6638;SDS011;3355;52.882;8.430;2024-01-27T15:18:11;12.03;;;3.57;;
6638;SDS011;3355;52.882;8.430;2024-01-27T15:20:41;12.13;;;3.77;;
6638;SDS011;3355;52.882;8.430;2024-01-27T15:23:17;7.37;;;4.50;;
6638;SDS011;3355;52.882;8.430;2024-01-27T15:25:50;5.63;;;3.13;;
6638;SDS011;3355;52.882;8.430;2024-01-27T15:28:20;18.73;;;4.70;;
6638;SDS011;3355;52.882;8.430;2024-01-27T15:30:53;8.70;;;2.77;;
6638;SDS011;3355;52.882;8.430;2024-01-27T15:33:29;4.20;;;3.00;;
6638;SDS011;3355;52.882;8.430;2024-01-27T15:35:57;5.47;;;2.60;;
6638;SDS011;3355;52.882;8.430;2024-01-27T15:38:27;10.93;;;3.77;;
6638;SDS011;3355;52.882;8.430;2024-01-27T15:41:03;10.37;;;4.20;;
6638;SDS011;3355;52.882;8.430;2024-01-27T15:43:33;9.73;;;4.13;;
6638;SDS011;3355;52.882;8.430;2024-01-27T15:46:00;6.27;;;3.63;;
6638;SDS011;3355;52.882;8.430;2024-01-27T15:48:29;12.57;;;3.30;;
6638;SDS011;3355;52.882;8.430;2024-01-27T15:50:57;8.73;;;4.10;;
6638;SDS011;3355;52.882;8.430;2024-01-27T15:53:24;6.27;;;3.97;;
6638;SDS011;3355;52.882;8.430;2024-01-27T15:55:51;5.53;;;3.40;;
6638;SDS011;3355;52.882;8.430;2024-01-27T15:58:17;10.73;;;4.03;;
6638;SDS011;3355;52.882;8.430;2024-01-27T16:00:45;9.13;;;3.80;;
6638;SDS011;3355;52.882;8.430;2024-01-27T16:03:11;8.90;;;3.30;;
6638;SDS011;3355;52.882;8.430;2024-01-27T16:05:38;10.77;;;3.83;;
6638;SDS011;3355;52.882;8.430;2024-01-27T16:08:06;7.47;;;4.10;;
6638;SDS011;3355;52.882;8.430;2024-01-27T16:10:35;8.23;;;3.80;;
6638;SDS011;3355;52.882;8.430;2024-01-27T16:13:12;7.70;;;3.20;;
6638;SDS011;3355;52.882;8.430;2024-01-27T16:15:39;6.60;;;3.50;;
6638;SDS011;3355;52.882;8.430;2024-01-27T16:18:07;9.10;;;3.10;;
6638;SDS011;3355;52.882;8.430;2024-01-27T16:20:34;12.40;;;4.00;;
6638;SDS011;3355;52.882;8.430;2024-01-27T16:23:01;6.80;;;3.93;;
6638;SDS011;3355;52.882;8.430;2024-01-27T16:25:29;6.70;;;3.80;;
6638;SDS011;3355;52.882;8.430;2024-01-27T16:27:55;12.77;;;4.90;;
6638;SDS011;3355;52.882;8.430;2024-01-27T16:30:22;7.80;;;3.63;;
6638;SDS011;3355;52.882;8.430;2024-01-27T16:32:49;12.40;;;4.20;;
6638;SDS011;3355;52.882;8.430;2024-01-27T16:35:15;9.80;;;3.20;;
6638;SDS011;3355;52.882;8.430;2024-01-27T16:37:42;12.50;;;3.80;;
6638;SDS011;3355;52.882;8.430;2024-01-27T16:40:09;8.97;;;3.73;;
6638;SDS011;3355;52.882;8.430;2024-01-27T16:42:37;7.73;;;3.33;;
6638;SDS011;3355;52.882;8.430;2024-01-27T16:45:04;7.17;;;3.93;;
6638;SDS011;3355;52.882;8.430;2024-01-27T16:47:31;9.63;;;4.47;;
6638;SDS011;3355;52.882;8.430;2024-01-27T16:49:58;12.53;;;5.03;;
6638;SDS011;3355;52.882;8.430;2024-01-27T16:52:25;13.70;;;4.97;;
6638;SDS011;3355;52.882;8.430;2024-01-27T16:54:51;7.20;;;3.90;;
6638;SDS011;3355;52.882;8.430;2024-01-27T16:57:18;12.23;;;4.27;;
6638;SDS011;3355;52.882;8.430;2024-01-27T16:59:46;6.60;;;4.80;;
6638;SDS011;3355;52.882;8.430;2024-01-27T17:02:13;8.40;;;4.53;;
6638;SDS011;3355;52.882;8.430;2024-01-27T17:04:40;14.80;;;5.10;;
6638;SDS011;3355;52.882;8.430;2024-01-27T17:07:08;9.40;;;4.60;;
6638;SDS011;3355;52.882;8.430;2024-01-27T17:09:35;11.70;;;4.93;;
6638;SDS011;3355;52.882;8.430;2024-01-27T17:12:03;12.20;;;5.00;;
6638;SDS011;3355;52.882;8.430;2024-01-27T17:14:31;13.10;;;4.93;;
6638;SDS011;3355;52.882;8.430;2024-01-27T17:16:59;9.90;;;4.43;;
6638;SDS011;3355;52.882;8.430;2024-01-27T17:19:25;7.10;;;4.63;;
6638;SDS011;3355;52.882;8.430;2024-01-27T17:21:53;9.50;;;4.97;;
6638;SDS011;3355;52.882;8.430;2024-01-27T17:24:19;9.50;;;4.87;;
6638;SDS011;3355;52.882;8.430;2024-01-27T17:26:46;7.93;;;4.70;;
6638;SDS011;3355;52.882;8.430;2024-01-27T17:29:13;7.80;;;5.23;;
6638;SDS011;3355;52.882;8.430;2024-01-27T17:31:39;8.60;;;4.33;;
6638;SDS011;3355;52.882;8.430;2024-01-27T17:34:07;6.80;;;5.10;;
6638;SDS011;3355;52.882;8.430;2024-01-27T17:36:34;8.23;;;4.47;;
6638;SDS011;3355;52.882;8.430;2024-01-27T17:39:01;7.60;;;4.80;;
6638;SDS011;3355;52.882;8.430;2024-01-27T17:41:27;6.90;;;5.00;;
6638;SDS011;3355;52.882;8.430;2024-01-27T17:43:54;10.30;;;6.30;;
6638;SDS011;3355;52.882;8.430;2024-01-27T17:46:21;8.63;;;5.90;;
6638;SDS011;3355;52.882;8.430;2024-01-27T17:48:47;12.33;;;4.70;;
6638;SDS011;3355;52.882;8.430;2024-01-27T17:51:15;8.93;;;4.40;;
6638;SDS011;3355;52.882;8.430;2024-01-27T17:53:42;11.73;;;7.30;;
6638;SDS011;3355;52.882;8.430;2024-01-27T17:56:09;7.27;;;4.37;;
6638;SDS011;3355;52.882;8.430;2024-01-27T17:58:35;10.73;;;5.30;;
6638;SDS011;3355;52.882;8.430;2024-01-27T18:01:02;9.50;;;4.87;;
6638;SDS011;3355;52.882;8.430;2024-01-27T18:03:29;9.10;;;5.03;;
6638;SDS011;3355;52.882;8.430;2024-01-27T18:05:56;10.07;;;5.10;;
6638;SDS011;3355;52.882;8.430;2024-01-27T18:08:25;15.03;;;5.40;;
6638;SDS011;3355;52.882;8.430;2024-01-27T18:10:51;13.73;;;6.37;;
6638;SDS011;3355;52.882;8.430;2024-01-27T18:13:18;8.33;;;4.60;;
6638;SDS011;3355;52.882;8.430;2024-01-27T18:15:44;13.03;;;5.10;;
6638;SDS011;3355;52.882;8.430;2024-01-27T18:18:11;8.40;;;6.80;;
6638;SDS011;3355;52.882;8.430;2024-01-27T18:20:40;8.93;;;5.43;;
6638;SDS011;3355;52.882;8.430;2024-01-27T18:23:07;8.60;;;5.40;;
6638;SDS011;3355;52.882;8.430;2024-01-27T18:25:35;12.93;;;6.40;;
6638;SDS011;3355;52.882;8.430;2024-01-27T18:28:02;10.27;;;5.17;;
6638;SDS011;3355;52.882;8.430;2024-01-27T18:30:29;8.47;;;4.40;;
6638;SDS011;3355;52.882;8.430;2024-01-27T18:32:55;12.90;;;5.70;;
6638;SDS011;3355;52.882;8.430;2024-01-27T18:35:22;9.90;;;5.83;;
6638;SDS011;3355;52.882;8.430;2024-01-27T18:37:54;11.13;;;5.93;;
6638;SDS011;3355;52.882;8.430;2024-01-27T18:40:21;13.70;;;6.23;;
6638;SDS011;3355;52.882;8.430;2024-01-27T18:42:50;6.67;;;5.43;;
6638;SDS011;3355;52.882;8.430;2024-01-27T18:45:16;9.90;;;5.10;;
6638;SDS011;3355;52.882;8.430;2024-01-27T18:47:43;10.63;;;5.63;;
6638;SDS011;3355;52.882;8.430;2024-01-27T18:50:09;9.23;;;5.20;;
6638;SDS011;3355;52.882;8.430;2024-01-27T18:52:36;12.77;;;5.03;;
6638;SDS011;3355;52.882;8.430;2024-01-27T18:55:04;8.37;;;5.50;;
6638;SDS011;3355;52.882;8.430;2024-01-27T18:57:33;9.23;;;5.63;;
6638;SDS011;3355;52.882;8.430;2024-01-27T19:00:01;9.83;;;5.43;;
6638;SDS011;3355;52.882;8.430;2024-01-27T19:02:29;10.40;;;5.53;;
6638;SDS011;3355;52.882;8.430;2024-01-27T19:04:56;11.27;;;5.40;;
6638;SDS011;3355;52.882;8.430;2024-01-27T19:07:27;11.93;;;4.90;;
6638;SDS011;3355;52.882;8.430;2024-01-27T19:09:54;14.97;;;7.00;;
6638;SDS011;3355;52.882;8.430;2024-01-27T19:12:20;13.97;;;5.37;;
6638;SDS011;3355;52.882;8.430;2024-01-27T19:14:47;15.10;;;5.43;;
6638;SDS011;3355;52.882;8.430;2024-01-27T19:17:15;9.27;;;5.90;;
6638;SDS011;3355;52.882;8.430;2024-01-27T19:19:42;6.43;;;4.30;;
6638;SDS011;3355;52.882;8.430;2024-01-27T19:22:09;8.07;;;4.80;;
6638;SDS011;3355;52.882;8.430;2024-01-27T19:24:35;12.47;;;5.50;;
6638;SDS011;3355;52.882;8.430;2024-01-27T19:27:02;6.37;;;4.73;;
6638;SDS011;3355;52.882;8.430;2024-01-27T19:29:29;12.97;;;6.27;;
6638;SDS011;3355;52.882;8.430;2024-01-27T19:31:56;14.07;;;6.23;;
6638;SDS011;3355;52.882;8.430;2024-01-27T19:34:25;12.13;;;5.97;;
6638;SDS011;3355;52.882;8.430;2024-01-27T19:36:55;13.83;;;6.10;;
6638;SDS011;3355;52.882;8.430;2024-01-27T19:39:22;9.20;;;5.07;;
6638;SDS011;3355;52.882;8.430;2024-01-27T19:41:49;8.27;;;5.57;;
6638;SDS011;3355;52.882;8.430;2024-01-27T19:44:16;6.70;;;5.07;;
6638;SDS011;3355;52.882;8.430;2024-01-27T19:46:43;9.80;;;5.53;;
6638;SDS011;3355;52.882;8.430;2024-01-27T19:49:10;10.27;;;4.63;;
6638;SDS011;3355;52.882;8.430;2024-01-27T19:51:42;10.20;;;4.80;;
6638;SDS011;3355;52.882;8.430;2024-01-27T19:54:09;7.93;;;5.17;;
6638;SDS011;3355;52.882;8.430;2024-01-27T19:56:36;7.43;;;4.40;;
6638;SDS011;3355;52.882;8.430;2024-01-27T19:59:02;7.80;;;5.43;;
6638;SDS011;3355;52.882;8.430;2024-01-27T20:01:29;14.00;;;5.27;;
6638;SDS011;3355;52.882;8.430;2024-01-27T20:03:56;7.90;;;5.07;;
6638;SDS011;3355;52.882;8.430;2024-01-27T20:06:22;12.97;;;5.70;;
6638;SDS011;3355;52.882;8.430;2024-01-27T20:08:50;8.67;;;5.77;;
6638;SDS011;3355;52.882;8.430;2024-01-27T20:11:17;10.00;;;6.40;;
6638;SDS011;3355;52.882;8.430;2024-01-27T20:13:43;11.67;;;6.20;;
6638;SDS011;3355;52.882;8.430;2024-01-27T20:16:10;15.93;;;6.90;;
6638;SDS011;3355;52.882;8.430;2024-01-27T20:18:38;11.50;;;6.40;;
6638;SDS011;3355;52.882;8.430;2024-01-27T20:21:20;10.37;;;5.90;;
6638;SDS011;3355;52.882;8.430;2024-01-27T20:23:48;9.10;;;5.97;;
6638;SDS011;3355;52.882;8.430;2024-01-27T20:26:16;11.20;;;6.30;;
6638;SDS011;3355;52.882;8.430;2024-01-27T20:28:45;10.23;;;5.90;;
6638;SDS011;3355;52.882;8.430;2024-01-27T20:31:12;15.50;;;6.60;;
6638;SDS011;3355;52.882;8.430;2024-01-27T20:33:38;15.23;;;6.67;;
6638;SDS011;3355;52.882;8.430;2024-01-27T20:36:06;12.73;;;6.20;;
6638;SDS011;3355;52.882;8.430;2024-01-27T20:38:33;12.37;;;7.23;;
6638;SDS011;3355;52.882;8.430;2024-01-27T20:41:02;11.07;;;7.70;;
6638;SDS011;3355;52.882;8.430;2024-01-27T20:43:30;10.73;;;8.03;;
6638;SDS011;3355;52.882;8.430;2024-01-27T20:45:57;15.23;;;8.30;;
6638;SDS011;3355;52.882;8.430;2024-01-27T20:48:26;16.80;;;10.80;;
6638;SDS011;3355;52.882;8.430;2024-01-27T20:50:53;24.13;;;15.97;;
6638;SDS011;3355;52.882;8.430;2024-01-27T20:53:20;15.47;;;11.07;;
6638;SDS011;3355;52.882;8.430;2024-01-27T20:55:47;19.30;;;15.07;;
6638;SDS011;3355;52.882;8.430;2024-01-27T20:58:15;16.47;;;11.57;;
6638;SDS011;3355;52.882;8.430;2024-01-27T21:00:43;14.27;;;9.20;;
6638;SDS011;3355;52.882;8.430;2024-01-27T21:03:10;17.57;;;13.07;;
6638;SDS011;3355;52.882;8.430;2024-01-27T21:05:37;14.53;;;7.67;;
6638;SDS011;3355;52.882;8.430;2024-01-27T21:08:03;11.03;;;7.83;;
6638;SDS011;3355;52.882;8.430;2024-01-27T21:10:33;11.70;;;7.70;;
6638;SDS011;3355;52.882;8.430;2024-01-27T21:13:00;13.50;;;6.93;;
6638;SDS011;3355;52.882;8.430;2024-01-27T21:15:30;9.93;;;7.20;;
6638;SDS011;3355;52.882;8.430;2024-01-27T21:17:58;12.23;;;7.10;;
6638;SDS011;3355;52.882;8.430;2024-01-27T21:20:29;10.73;;;5.70;;
6638;SDS011;3355;52.882;8.430;2024-01-27T21:22:56;13.90;;;5.53;;
6638;SDS011;3355;52.882;8.430;2024-01-27T21:25:25;11.07;;;6.50;;
6638;SDS011;3355;52.882;8.430;2024-01-27T21:27:52;8.57;;;5.70;;
6638;SDS011;3355;52.882;8.430;2024-01-27T21:30:18;11.87;;;5.73;;
6638;SDS011;3355;52.882;8.430;2024-01-27T21:32:45;13.23;;;6.00;;
6638;SDS011;3355;52.882;8.430;2024-01-27T21:35:13;14.07;;;5.90;;
6638;SDS011;3355;52.882;8.430;2024-01-27T21:37:39;11.20;;;6.43;;
6638;SDS011;3355;52.882;8.430;2024-01-27T21:40:06;10.73;;;6.40;;
6638;SDS011;3355;52.882;8.430;2024-01-27T21:42:34;8.20;;;5.03;;
6638;SDS011;3355;52.882;8.430;2024-01-27T21:45:00;9.70;;;6.20;;
6638;SDS011;3355;52.882;8.430;2024-01-27T21:47:29;15.97;;;6.30;;
6638;SDS011;3355;52.882;8.430;2024-01-27T21:49:56;7.23;;;5.07;;
6638;SDS011;3355;52.882;8.430;2024-01-27T21:52:24;13.73;;;6.47;;
6638;SDS011;3355;52.882;8.430;2024-01-27T21:54:51;8.87;;;5.00;;
6638;SDS011;3355;52.882;8.430;2024-01-27T21:57:18;10.83;;;5.20;;
6638;SDS011;3355;52.882;8.430;2024-01-27T21:59:44;9.33;;;5.67;;
6638;SDS011;3355;52.882;8.430;2024-01-27T22:02:11;9.97;;;6.10;;
6638;SDS011;3355;52.882;8.430;2024-01-27T22:04:37;15.77;;;6.10;;
6638;SDS011;3355;52.882;8.430;2024-01-27T22:07:04;11.93;;;6.20;;
6638;SDS011;3355;52.882;8.430;2024-01-27T22:09:32;8.20;;;5.50;;
6638;SDS011;3355;52.882;8.430;2024-01-27T22:11:58;9.57;;;6.60;;
6638;SDS011;3355;52.882;8.430;2024-01-27T22:14:27;16.00;;;7.13;;
6638;SDS011;3355;52.882;8.430;2024-01-27T22:16:54;11.87;;;5.93;;
6638;SDS011;3355;52.882;8.430;2024-01-27T22:19:20;17.30;;;6.03;;
6638;SDS011;3355;52.882;8.430;2024-01-27T22:21:47;11.03;;;6.77;;
6638;SDS011;3355;52.882;8.430;2024-01-27T22:24:18;11.13;;;6.37;;
6638;SDS011;3355;52.882;8.430;2024-01-27T22:26:46;10.70;;;6.30;;
6638;SDS011;3355;52.882;8.430;2024-01-27T22:29:13;10.87;;;6.10;;
6638;SDS011;3355;52.882;8.430;2024-01-27T22:31:40;16.60;;;6.93;;
6638;SDS011;3355;52.882;8.430;2024-01-27T22:34:06;9.50;;;7.10;;
6638;SDS011;3355;52.882;8.430;2024-01-27T22:36:32;9.47;;;6.00;;
6638;SDS011;3355;52.882;8.430;2024-01-27T22:38:59;13.30;;;6.70;;
6638;SDS011;3355;52.882;8.430;2024-01-27T22:41:26;13.63;;;7.10;;